createdAt,value
2023-04-16T00:00:14.753Z,80168.94
2023-04-16T00:01:56.172Z,80162.38
2023-04-16T00:03:37.948Z,80160.47
2023-04-16T00:05:19.371Z,80167.50
2023-04-16T00:07:00.662Z,80167.25
2023-04-16T00:08:41.947Z,80158.28
2023-04-16T00:10:23.242Z,80171.22
2023-04-16T00:12:04.541Z,80157.84
2023-04-16T00:13:45.783Z,80150.44
2023-04-16T00:15:27.071Z,80145.84
2023-04-16T00:17:08.492Z,80147.00
2023-04-16T00:18:49.944Z,80151.28
2023-04-16T00:20:31.238Z,80152.38
2023-04-16T00:22:12.645Z,80140.53
2023-04-16T00:23:53.929Z,80145.19
2023-04-16T00:25:35.220Z,80144.53
2023-04-16T00:27:16.519Z,80150.72
2023-04-16T00:28:57.836Z,80147.78
2023-04-16T00:30:39.175Z,80143.97
2023-04-16T00:32:20.484Z,80151.00
2023-04-16T00:34:01.856Z,80151.59
2023-04-16T00:35:43.185Z,80156.53
2023-04-16T00:37:24.553Z,80156.69
2023-04-16T00:39:05.897Z,80161.84
2023-04-16T00:40:47.210Z,80163.25
2023-04-16T00:42:28.529Z,80166.75
2023-04-16T00:44:09.821Z,80165.19
2023-04-16T00:45:51.154Z,80171.50
2023-04-16T00:47:32.506Z,80178.91
2023-04-16T00:49:13.839Z,80182.00
2023-04-16T00:50:55.189Z,80188.13
2023-04-16T00:52:36.526Z,80173.03
2023-04-16T00:54:17.820Z,80167.72
2023-04-16T00:55:59.106Z,80170.50
2023-04-16T00:57:40.414Z,80166.47
2023-04-16T00:59:21.735Z,80176.19
2023-04-16T01:01:03.032Z,80173.22
2023-04-16T01:02:44.512Z,80175.34
2023-04-16T01:04:25.918Z,80178.19
2023-04-16T01:06:07.554Z,80177.34
2023-04-16T01:07:48.855Z,80178.19
2023-04-16T01:09:30.164Z,80183.72
2023-04-16T01:11:11.452Z,80178.16
2023-04-16T01:12:52.745Z,80185.00
2023-04-16T01:14:34.049Z,80181.22
2023-04-16T01:16:15.353Z,80178.03
2023-04-16T01:17:56.741Z,80184.00
2023-04-16T01:19:38.043Z,80178.59
2023-04-16T01:21:19.382Z,80182.75
2023-04-16T01:23:00.676Z,80182.00
2023-04-16T01:24:41.971Z,80171.53
2023-04-16T01:26:23.241Z,80181.38
2023-04-16T01:28:04.551Z,80177.16
2023-04-16T01:29:45.849Z,80180.47
2023-04-16T01:31:27.248Z,80177.31
2023-04-16T01:33:08.594Z,80180.53
2023-04-16T01:34:49.874Z,80176.63
2023-04-16T01:36:31.164Z,80180.44
2023-04-16T01:38:12.548Z,80186.44
2023-04-16T01:39:53.839Z,80177.41
2023-04-16T01:41:35.145Z,80176.56
2023-04-16T01:43:16.480Z,80179.72
2023-04-16T01:44:57.772Z,80172.84
2023-04-16T01:46:39.112Z,80166.97
2023-04-16T01:48:20.432Z,80184.66
2023-04-16T01:50:01.831Z,80179.84
2023-04-16T01:51:43.157Z,80178.44
2023-04-16T01:53:24.467Z,80163.59
2023-04-16T01:55:05.740Z,80167.66
2023-04-16T01:56:47.093Z,80171.47
2023-04-16T01:58:28.382Z,80177.53
2023-04-16T02:00:09.685Z,80172.16
2023-04-16T02:01:51.083Z,80175.75
2023-04-16T02:03:32.658Z,80171.28
2023-04-16T02:05:14.185Z,80165.28
2023-04-16T02:06:55.528Z,80175.69
2023-04-16T02:08:36.797Z,80170.25
2023-04-16T02:10:18.160Z,80169.78
2023-04-16T02:11:59.493Z,80176.50
2023-04-16T02:13:40.814Z,80177.72
2023-04-16T02:15:22.080Z,80174.81
2023-04-16T02:17:03.367Z,80173.34
2023-04-16T02:18:44.682Z,80177.81
2023-04-16T02:20:25.959Z,80181.31
2023-04-16T02:22:07.246Z,80175.41
2023-04-16T02:23:48.542Z,80175.19
2023-04-16T02:25:29.823Z,80190.44
2023-04-16T02:27:11.160Z,80189.78
2023-04-16T02:28:52.468Z,80196.53
2023-04-16T02:30:33.745Z,80196.28
2023-04-16T02:32:15.065Z,80197.25
2023-04-16T02:33:56.435Z,80200.06
2023-04-16T02:35:37.753Z,80190.66
2023-04-16T02:37:19.019Z,80186.13
2023-04-16T02:39:00.297Z,80189.78
2023-04-16T02:40:41.608Z,80185.28
2023-04-16T02:42:22.896Z,80182.06
2023-04-16T02:44:04.207Z,80185.41
2023-04-16T02:45:45.542Z,80184.88
2023-04-16T02:47:26.933Z,80177.88
2023-04-16T02:49:08.463Z,80180.25
2023-04-16T02:50:49.936Z,80177.84
2023-04-16T02:52:31.240Z,80177.44
2023-04-16T02:54:12.512Z,80179.59
2023-04-16T02:55:53.823Z,80175.03
2023-04-16T02:57:35.113Z,80180.00
2023-04-16T02:59:16.423Z,80184.00
2023-04-16T03:00:57.739Z,80173.19
2023-04-16T03:02:39.126Z,80173.72
2023-04-16T03:04:20.552Z,80170.75
2023-04-16T03:06:01.966Z,80169.53
2023-04-16T03:07:43.282Z,80180.59
2023-04-16T03:09:24.777Z,80177.50
2023-04-16T03:11:06.112Z,80178.16
2023-04-16T03:12:47.409Z,80180.31
2023-04-16T03:14:28.700Z,80177.69
2023-04-16T03:16:10.005Z,80179.25
2023-04-16T03:17:51.361Z,80179.78
2023-04-16T03:19:32.674Z,80178.69
2023-04-16T03:21:13.974Z,80177.28
2023-04-16T03:22:55.272Z,80179.50
2023-04-16T03:24:36.549Z,80171.72
2023-04-16T03:26:17.831Z,80174.22
2023-04-16T03:27:59.167Z,80170.81
2023-04-16T03:29:40.440Z,80173.22
2023-04-16T03:31:21.815Z,80171.81
2023-04-16T03:33:03.242Z,80171.66
2023-04-16T03:34:44.560Z,80171.56
2023-04-16T03:36:25.870Z,80174.34
2023-04-16T03:38:07.173Z,80173.53
2023-04-16T03:39:48.508Z,80173.13
2023-04-16T03:41:29.912Z,80175.28
2023-04-16T03:43:11.176Z,80180.59
2023-04-16T03:44:52.467Z,80167.66
2023-04-16T03:46:33.799Z,80178.66
2023-04-16T03:48:15.133Z,80175.81
2023-04-16T03:49:56.415Z,80180.66
2023-04-16T03:51:37.710Z,80178.75
2023-04-16T03:53:19.036Z,80178.44
2023-04-16T03:55:00.350Z,80177.94
2023-04-16T03:56:41.703Z,80181.91
2023-04-16T03:58:22.984Z,80188.88
2023-04-16T04:00:04.273Z,80173.19
2023-04-16T04:01:45.591Z,80185.69
2023-04-16T04:03:27.244Z,80184.97
2023-04-16T04:05:08.878Z,80189.78
2023-04-16T04:06:50.235Z,80183.97
2023-04-16T04:08:31.559Z,80186.22
2023-04-16T04:10:12.856Z,80191.13
2023-04-16T04:11:54.162Z,80181.75
2023-04-16T04:13:35.430Z,80190.28
2023-04-16T04:15:16.720Z,80186.69
2023-04-16T04:16:58.031Z,80192.19
2023-04-16T04:18:39.312Z,80190.63
2023-04-16T04:20:20.595Z,80189.94
2023-04-16T04:22:01.897Z,80201.81
2023-04-16T04:23:43.183Z,80194.44
2023-04-16T04:25:24.500Z,80197.41
2023-04-16T04:27:05.804Z,80202.97
2023-04-16T04:28:47.059Z,80182.88
2023-04-16T04:30:28.329Z,80193.53
2023-04-16T04:32:09.621Z,80189.53
2023-04-16T04:33:50.928Z,80189.19
2023-04-16T04:35:32.206Z,80192.75
2023-04-16T04:37:13.494Z,80196.47
2023-04-16T04:38:54.807Z,80195.16
2023-04-16T04:40:36.193Z,80191.19
2023-04-16T04:42:17.461Z,80189.91
2023-04-16T04:43:58.848Z,80194.38
2023-04-16T04:45:40.159Z,80191.91
2023-04-16T04:47:21.504Z,80185.78
2023-04-16T04:49:02.856Z,80184.59
2023-04-16T04:50:44.197Z,80183.56
2023-04-16T04:52:25.464Z,80177.94
2023-04-16T04:54:06.800Z,80179.44
2023-04-16T04:55:52.153Z,80180.06
2023-04-16T04:57:35.221Z,80189.63
2023-04-16T04:59:16.553Z,80178.84
2023-04-16T05:00:57.861Z,80185.34
2023-04-16T05:02:39.254Z,80179.72
2023-04-16T05:04:20.716Z,80176.63
2023-04-16T05:06:02.105Z,80175.75
2023-04-16T05:07:43.416Z,80184.59
2023-04-16T05:09:24.730Z,80180.63
2023-04-16T05:11:06.019Z,80179.84
2023-04-16T05:12:48.931Z,80175.81
2023-04-16T05:14:30.426Z,80180.47
2023-04-16T05:16:11.773Z,80183.06
2023-04-16T05:17:53.138Z,80192.94
2023-04-16T05:19:34.504Z,80188.03
2023-04-16T05:21:15.791Z,80181.47
2023-04-16T05:22:57.069Z,80186.72
2023-04-16T05:24:38.384Z,80191.88
2023-04-16T05:26:19.659Z,80195.41
2023-04-16T05:28:00.936Z,80200.31
2023-04-16T05:29:42.226Z,80199.34
2023-04-16T05:31:23.564Z,80208.19
2023-04-16T05:33:04.920Z,80209.50
2023-04-16T05:34:46.216Z,80208.03
2023-04-16T05:36:27.511Z,80202.72
2023-04-16T05:38:08.803Z,80205.06
2023-04-16T05:39:50.119Z,80200.31
2023-04-16T05:41:31.427Z,80199.59
2023-04-16T05:43:12.716Z,80204.47
2023-04-16T05:44:54.046Z,80204.69
2023-04-16T05:46:35.379Z,80191.94
2023-04-16T05:48:16.871Z,80192.75
2023-04-16T05:49:58.394Z,80195.34
2023-04-16T05:51:39.682Z,80192.81
2023-04-16T05:53:20.995Z,80202.00
2023-04-16T05:55:02.272Z,80194.69
2023-04-16T05:56:43.579Z,80199.06
2023-04-16T05:58:24.861Z,80206.38
2023-04-16T06:00:06.229Z,80200.34
2023-04-16T06:01:47.627Z,80204.66
2023-04-16T06:03:29.020Z,80200.44
2023-04-16T06:05:10.412Z,80200.59
2023-04-16T06:06:51.762Z,80204.50
2023-04-16T06:08:33.048Z,80205.38
2023-04-16T06:10:14.322Z,80196.94
2023-04-16T06:11:55.661Z,80199.63
2023-04-16T06:13:36.934Z,80199.78
2023-04-16T06:15:18.213Z,80201.41
2023-04-16T06:16:59.555Z,80189.94
2023-04-16T06:18:40.822Z,80189.13
2023-04-16T06:20:22.368Z,80188.09
2023-04-16T06:22:03.755Z,80187.25
2023-04-16T06:23:45.064Z,80184.31
2023-04-16T06:25:26.336Z,80184.41
2023-04-16T06:27:07.641Z,80182.94
2023-04-16T06:28:48.913Z,80188.78
2023-04-16T06:30:30.206Z,80187.16
2023-04-16T06:32:11.508Z,80183.06
2023-04-16T06:33:52.814Z,80188.88
2023-04-16T06:35:34.118Z,80183.66
2023-04-16T06:37:15.401Z,80186.88
2023-04-16T06:38:56.704Z,80181.16
2023-04-16T06:40:38.018Z,80189.47
2023-04-16T06:42:19.365Z,80184.28
2023-04-16T06:44:00.700Z,80180.88
2023-04-16T06:45:42.077Z,80181.50
2023-04-16T06:47:23.398Z,80181.44
2023-04-16T06:49:04.704Z,80182.34
2023-04-16T06:50:46.031Z,80182.81
2023-04-16T06:52:27.379Z,80180.69
2023-04-16T06:54:08.937Z,80178.50
2023-04-16T06:55:50.208Z,80185.53
2023-04-16T06:57:31.529Z,80187.94
2023-04-16T06:59:12.968Z,80186.19
2023-04-16T07:00:54.482Z,80183.09
2023-04-16T07:02:36.008Z,80186.72
2023-04-16T07:04:17.485Z,80186.88
2023-04-16T07:05:58.912Z,80184.72
2023-04-16T07:07:40.268Z,80183.88
2023-04-16T07:09:21.628Z,80190.06
2023-04-16T07:11:02.963Z,80191.91
2023-04-16T07:12:44.288Z,80190.50
2023-04-16T07:14:25.603Z,80202.50
2023-04-16T07:16:06.907Z,80204.63
2023-04-16T07:17:48.311Z,80197.50
2023-04-16T07:19:29.628Z,80201.06
2023-04-16T07:21:10.911Z,80205.72
2023-04-16T07:22:52.201Z,80200.78
2023-04-16T07:24:33.524Z,80199.72
2023-04-16T07:26:14.798Z,80205.59
2023-04-16T07:27:56.113Z,80207.03
2023-04-16T07:29:37.432Z,80201.75
2023-04-16T07:31:18.784Z,80211.78
2023-04-16T07:33:00.246Z,80219.09
2023-04-16T07:34:41.561Z,80213.28
2023-04-16T07:36:22.862Z,80216.84
2023-04-16T07:38:04.170Z,80212.34
2023-04-16T07:39:45.482Z,80215.41
2023-04-16T07:41:26.791Z,80208.81
2023-04-16T07:43:08.088Z,80204.19
2023-04-16T07:44:49.406Z,80210.44
2023-04-16T07:46:43.210Z,80197.78
2023-04-16T07:48:28.045Z,80205.19
2023-04-16T07:50:09.344Z,80200.66
2023-04-16T07:51:50.647Z,80194.16
2023-04-16T07:53:31.968Z,80201.81
2023-04-16T07:55:13.248Z,80195.47
2023-04-16T07:56:54.558Z,80195.03
2023-04-16T07:58:35.876Z,80203.75
2023-04-16T08:00:17.218Z,80205.16
2023-04-16T08:01:58.542Z,80207.88
2023-04-16T08:03:40.020Z,80200.50
2023-04-16T08:05:21.657Z,80196.59
2023-04-16T08:07:03.021Z,80195.84
2023-04-16T08:08:44.319Z,80200.38
2023-04-16T08:10:25.613Z,80193.63
2023-04-16T08:12:06.939Z,80193.34
2023-04-16T08:13:48.249Z,80207.41
2023-04-16T08:15:29.600Z,80210.53
2023-04-16T08:17:10.958Z,80213.59
2023-04-16T08:18:52.274Z,80216.94
2023-04-16T08:20:33.580Z,80213.50
2023-04-16T08:22:14.902Z,80218.75
2023-04-16T08:23:56.170Z,80221.19
2023-04-16T08:25:37.460Z,80224.72
2023-04-16T08:27:20.157Z,80225.66
2023-04-16T08:29:01.717Z,80230.34
2023-04-16T08:30:43.017Z,80227.88
2023-04-16T08:32:24.355Z,80229.63
2023-04-16T08:34:05.695Z,80226.66
2023-04-16T08:35:46.973Z,80229.91
2023-04-16T08:37:28.274Z,80235.81
2023-04-16T08:39:09.980Z,80235.16
2023-04-16T08:40:51.485Z,80250.28
2023-04-16T08:42:32.794Z,80244.16
2023-04-16T08:44:14.127Z,80240.81
2023-04-16T08:45:55.414Z,80244.75
2023-04-16T08:47:36.767Z,80243.59
2023-04-16T08:49:18.058Z,80245.94
2023-04-16T08:50:59.351Z,80244.78
2023-04-16T08:52:40.657Z,80244.69
2023-04-16T08:54:22.044Z,80245.16
2023-04-16T08:56:03.318Z,80250.22
2023-04-16T08:57:44.656Z,80252.00
2023-04-16T08:59:25.985Z,80250.47
2023-04-16T09:01:07.294Z,80248.50
2023-04-16T09:02:48.858Z,80254.97
2023-04-16T09:04:30.483Z,80245.13
2023-04-16T09:06:11.918Z,80250.56
2023-04-16T09:07:53.227Z,80259.50
2023-04-16T09:09:34.698Z,80250.94
2023-04-16T09:11:16.048Z,80255.31
2023-04-16T09:12:57.398Z,80248.81
2023-04-16T09:14:38.930Z,80257.44
2023-04-16T09:16:20.266Z,80250.94
2023-04-16T09:18:01.661Z,80255.50
2023-04-16T09:19:43.040Z,80254.16
2023-04-16T09:21:24.444Z,80248.53
2023-04-16T09:23:05.744Z,80251.03
2023-04-16T09:24:47.035Z,80247.78
2023-04-16T09:26:28.324Z,80249.13
2023-04-16T09:28:09.652Z,80252.97
2023-04-16T09:29:50.945Z,80255.94
2023-04-16T09:31:32.283Z,80249.72
2023-04-16T09:33:13.596Z,80252.69
2023-04-16T09:34:55.077Z,80253.41
2023-04-16T09:36:36.457Z,80248.03
2023-04-16T09:38:17.840Z,80252.72
2023-04-16T09:39:59.135Z,80254.50
2023-04-16T09:41:40.437Z,80252.56
2023-04-16T09:43:21.762Z,80251.59
2023-04-16T09:45:05.517Z,80251.34
2023-04-16T09:46:47.410Z,80255.56
2023-04-16T09:48:28.691Z,80250.06
2023-04-16T09:50:11.952Z,80247.47
2023-04-16T09:51:54.073Z,80248.75
2023-04-16T09:53:35.354Z,80248.97
2023-04-16T09:55:16.641Z,80248.53
2023-04-16T09:56:57.929Z,80245.13
2023-04-16T09:58:39.232Z,80250.13
2023-04-16T10:00:20.529Z,80254.41
2023-04-16T10:02:14.614Z,80245.97
2023-04-16T10:03:57.641Z,80250.19
2023-04-16T10:05:38.988Z,80261.78
2023-04-16T10:07:20.302Z,80250.84
2023-04-16T10:09:01.641Z,80251.34
2023-04-16T10:10:42.948Z,80263.09
2023-04-16T10:12:24.249Z,80262.22
2023-04-16T10:14:05.532Z,80259.28
2023-04-16T10:15:46.815Z,80257.53
2023-04-16T10:17:28.130Z,80273.00
2023-04-16T10:19:09.624Z,80255.53
2023-04-16T10:20:51.219Z,80261.25
2023-04-16T10:22:32.520Z,80267.16
2023-04-16T10:24:13.816Z,80262.94
2023-04-16T10:25:57.343Z,80261.41
2023-04-16T10:27:38.973Z,80249.53
2023-04-16T10:29:20.266Z,80254.88
2023-04-16T10:31:01.640Z,80255.19
2023-04-16T10:32:43.010Z,80256.84
2023-04-16T10:34:24.339Z,80257.19
2023-04-16T10:36:07.748Z,80270.16
2023-04-16T10:37:49.573Z,80259.19
2023-04-16T10:39:30.849Z,80263.13
2023-04-16T10:41:12.131Z,80259.53
2023-04-16T10:42:53.508Z,80266.16
2023-04-16T10:44:34.795Z,80261.78
2023-04-16T10:46:16.100Z,80271.78
2023-04-16T10:47:57.570Z,80268.94
2023-04-16T10:49:38.860Z,80266.78
2023-04-16T10:51:20.161Z,80260.94
2023-04-16T10:53:01.538Z,80255.25
2023-04-16T10:54:42.816Z,80254.81
2023-04-16T10:56:24.131Z,80261.84
2023-04-16T10:58:05.514Z,80264.09
2023-04-16T10:59:46.862Z,80260.97
2023-04-16T11:01:28.187Z,80257.63
2023-04-16T11:03:09.630Z,80257.81
2023-04-16T11:04:51.139Z,80252.25
2023-04-16T11:06:32.517Z,80252.00
2023-04-16T11:08:13.870Z,80254.38
2023-04-16T11:09:55.159Z,80255.38
2023-04-16T11:11:36.493Z,80246.44
2023-04-16T11:13:17.774Z,80250.81
2023-04-16T11:14:59.065Z,80258.94
2023-04-16T11:16:40.351Z,80246.25
2023-04-16T11:18:21.628Z,80242.88
2023-04-16T11:20:02.934Z,80246.84
2023-04-16T11:21:44.869Z,80237.09
2023-04-16T11:23:26.179Z,80250.59
2023-04-16T11:25:07.491Z,80251.69
2023-04-16T11:26:48.812Z,80234.66
2023-04-16T11:28:30.121Z,80243.91
2023-04-16T11:30:11.424Z,80230.94
2023-04-16T11:31:52.864Z,80236.06
2023-04-16T11:33:34.228Z,80246.38
2023-04-16T11:35:15.602Z,80235.44
2023-04-16T11:36:56.919Z,80239.47
2023-04-16T11:38:38.184Z,80241.44
2023-04-16T11:40:19.491Z,80245.19
2023-04-16T11:42:00.817Z,80245.72
2023-04-16T11:43:42.160Z,80247.25
2023-04-16T11:45:23.625Z,80249.91
2023-04-16T11:47:04.925Z,80247.50
2023-04-16T11:48:46.273Z,80248.94
2023-04-16T11:50:27.728Z,80248.91
2023-04-16T11:52:09.082Z,80255.31
2023-04-16T11:53:50.391Z,80260.16
2023-04-16T11:55:31.661Z,80263.41
2023-04-16T11:57:12.960Z,80260.44
2023-04-16T11:58:54.280Z,80258.69
2023-04-16T12:00:35.605Z,80259.13
2023-04-16T12:02:17.002Z,80257.50
2023-04-16T12:03:58.494Z,80258.53
2023-04-16T12:05:39.997Z,80259.81
2023-04-16T12:07:21.484Z,80264.47
2023-04-16T12:09:02.838Z,80265.22
2023-04-16T12:10:44.183Z,80260.53
2023-04-16T12:12:25.501Z,80256.06
2023-04-16T12:14:06.812Z,80262.13
2023-04-16T12:15:48.160Z,80266.56
2023-04-16T12:17:29.554Z,80260.53
2023-04-16T12:19:11.086Z,80267.38
2023-04-16T12:20:52.720Z,80266.69
2023-04-16T12:22:36.006Z,80261.78
2023-04-16T12:24:18.221Z,80268.91
2023-04-16T12:25:59.521Z,80264.97
2023-04-16T12:27:40.874Z,80259.13
2023-04-16T12:29:22.178Z,80256.78
2023-04-16T12:31:03.586Z,80246.13
2023-04-16T12:32:45.031Z,80249.41
2023-04-16T12:34:34.674Z,80243.78
2023-04-16T12:36:27.583Z,80245.28
2023-04-16T12:38:08.884Z,80250.13
2023-04-16T12:39:50.177Z,80247.06
2023-04-16T12:41:31.458Z,80241.25
2023-04-16T12:43:12.757Z,80241.44
2023-04-16T12:44:54.056Z,80243.00
2023-04-16T12:46:35.399Z,80244.06
2023-04-16T12:48:16.743Z,80249.13
2023-04-16T12:49:58.073Z,80247.44
2023-04-16T12:51:39.375Z,80242.41
2023-04-16T12:53:20.665Z,80246.72
2023-04-16T12:55:01.950Z,80241.88
2023-04-16T12:56:43.239Z,80240.34
2023-04-16T12:58:24.529Z,80238.03
2023-04-16T13:00:05.832Z,80237.13
2023-04-16T13:01:47.179Z,80247.38
2023-04-16T13:03:28.566Z,80247.72
2023-04-16T13:05:09.979Z,80240.28
2023-04-16T13:06:51.276Z,80239.94
2023-04-16T13:08:32.593Z,80243.28
2023-04-16T13:10:13.883Z,80236.69
2023-04-16T13:11:55.323Z,80241.94
2023-04-16T13:13:36.680Z,80244.91
2023-04-16T13:15:17.986Z,80243.34
2023-04-16T13:16:59.280Z,80238.66
2023-04-16T13:18:40.582Z,80239.84
2023-04-16T13:20:24.358Z,80243.25
2023-04-16T13:22:05.835Z,80237.16
2023-04-16T13:23:47.151Z,80240.66
2023-04-16T13:25:28.430Z,80240.72
2023-04-16T13:27:09.754Z,80245.25
2023-04-16T13:28:51.063Z,80241.84
2023-04-16T13:30:32.354Z,80243.41
2023-04-16T13:32:13.845Z,80243.59
2023-04-16T13:33:55.163Z,80249.53
2023-04-16T13:35:36.464Z,80245.69
2023-04-16T13:37:17.726Z,80251.09
2023-04-16T13:38:59.036Z,80247.53
2023-04-16T13:40:40.325Z,80238.00
2023-04-16T13:42:21.606Z,80237.09
2023-04-16T13:44:02.918Z,80237.94
2023-04-16T13:45:44.225Z,80243.06
2023-04-16T13:47:25.636Z,80240.59
2023-04-16T13:49:07.035Z,80245.03
2023-04-16T13:50:48.412Z,80242.91
2023-04-16T13:52:29.681Z,80240.03
2023-04-16T13:54:10.969Z,80247.84
2023-04-16T13:55:52.264Z,80244.78
2023-04-16T13:57:33.566Z,80243.66
2023-04-16T13:59:14.865Z,80245.59
2023-04-16T14:00:56.247Z,80240.66
2023-04-16T14:02:37.806Z,80239.75
2023-04-16T14:04:19.296Z,80240.16
2023-04-16T14:06:00.705Z,80237.47
2023-04-16T14:07:41.988Z,80234.81
2023-04-16T14:09:23.315Z,80235.00
2023-04-16T14:11:04.631Z,80243.63
2023-04-16T14:12:45.963Z,80240.88
2023-04-16T14:14:27.393Z,80236.34
2023-04-16T14:16:08.794Z,80236.50
2023-04-16T14:17:50.239Z,80241.88
2023-04-16T14:19:31.590Z,80240.44
2023-04-16T14:21:12.920Z,80243.88
2023-04-16T14:22:54.261Z,80242.53
2023-04-16T14:24:35.574Z,80239.03
2023-04-16T14:26:16.950Z,80240.84
2023-04-16T14:27:58.211Z,80251.03
2023-04-16T14:29:39.540Z,80247.19
2023-04-16T14:31:20.943Z,80242.97
2023-04-16T14:33:02.312Z,80245.34
2023-04-16T14:34:43.664Z,80243.25
2023-04-16T14:36:25.039Z,80249.56
2023-04-16T14:38:06.332Z,80245.44
2023-04-16T14:39:47.612Z,80241.88
2023-04-16T14:41:29.008Z,80237.88
2023-04-16T14:43:10.307Z,80239.69
2023-04-16T14:44:51.620Z,80229.38
2023-04-16T14:46:32.912Z,80242.34
2023-04-16T14:48:14.377Z,80244.25
2023-04-16T14:49:55.735Z,80234.34
2023-04-16T14:51:37.098Z,80238.88
2023-04-16T14:53:18.427Z,80243.28
2023-04-16T14:54:59.797Z,80244.75
2023-04-16T14:56:41.140Z,80237.28
2023-04-16T14:58:22.448Z,80232.94
2023-04-16T15:00:03.774Z,80231.31
2023-04-16T15:01:45.270Z,80229.84
2023-04-16T15:03:26.821Z,80229.09
2023-04-16T15:05:08.257Z,80232.97
2023-04-16T15:06:49.903Z,80224.69
2023-04-16T15:08:31.306Z,80226.56
2023-04-16T15:10:12.633Z,80229.94
2023-04-16T15:11:53.958Z,80231.59
2023-04-16T15:13:35.242Z,80230.38
2023-04-16T15:15:16.545Z,80232.69
2023-04-16T15:16:57.873Z,80232.88
2023-04-16T15:18:39.196Z,80231.22
2023-04-16T15:20:20.524Z,80229.19
2023-04-16T15:22:01.899Z,80220.66
2023-04-16T15:23:43.252Z,80220.13
2023-04-16T15:25:24.548Z,80233.75
2023-04-16T15:27:05.840Z,80228.31
2023-04-16T15:28:47.134Z,80229.84
2023-04-16T15:30:28.442Z,80232.72
2023-04-16T15:32:09.754Z,80239.94
2023-04-16T15:33:51.045Z,80230.84
2023-04-16T15:35:32.382Z,80235.09
2023-04-16T15:37:13.692Z,80236.13
2023-04-16T15:38:54.974Z,80244.84
2023-04-16T15:40:36.303Z,80239.78
2023-04-16T15:42:17.623Z,80235.88
2023-04-16T15:43:58.928Z,80241.88
2023-04-16T15:45:40.421Z,80239.63
2023-04-16T15:47:21.933Z,80243.56
2023-04-16T15:49:03.279Z,80246.88
2023-04-16T15:50:44.587Z,80252.03
2023-04-16T15:52:26.102Z,80247.38
2023-04-16T15:54:07.676Z,80249.13
2023-04-16T15:55:49.227Z,80249.91
2023-04-16T15:57:30.636Z,80250.94
2023-04-16T15:59:12.211Z,80246.53
2023-04-16T16:00:53.779Z,80244.31
2023-04-16T16:02:35.247Z,80249.81
2023-04-16T16:04:16.830Z,80243.41
2023-04-16T16:05:59.434Z,80246.03
2023-04-16T16:07:40.853Z,80246.56
2023-04-16T16:09:22.130Z,80246.84
2023-04-16T16:11:03.461Z,80248.50
2023-04-16T16:12:44.781Z,80254.03
2023-04-16T16:14:26.143Z,80250.56
2023-04-16T16:16:07.556Z,80246.84
2023-04-16T16:17:48.889Z,80250.03
2023-04-16T16:19:30.212Z,80249.25
2023-04-16T16:21:11.506Z,80248.47
2023-04-16T16:22:52.828Z,80255.38
2023-04-16T16:24:34.139Z,80259.56
2023-04-16T16:26:15.454Z,80257.00
2023-04-16T16:27:56.744Z,80258.94
2023-04-16T16:29:38.121Z,80249.41
2023-04-16T16:31:19.508Z,80251.91
2023-04-16T16:33:00.876Z,80262.97
2023-04-16T16:34:42.202Z,80261.13
2023-04-16T16:36:23.518Z,80258.00
2023-04-16T16:38:04.849Z,80263.13
2023-04-16T16:39:46.144Z,80262.09
2023-04-16T16:41:27.465Z,80258.00
2023-04-16T16:43:08.918Z,80264.91
2023-04-16T16:44:50.800Z,80269.16
2023-04-16T16:46:32.381Z,80273.16
2023-04-16T16:48:13.695Z,80271.53
2023-04-16T16:49:54.988Z,80274.16
2023-04-16T16:51:36.462Z,80268.63
2023-04-16T16:53:17.852Z,80267.22
2023-04-16T16:54:59.256Z,80268.13
2023-04-16T16:56:40.626Z,80269.38
2023-04-16T16:58:21.947Z,80270.34
2023-04-16T17:00:03.267Z,80275.69
2023-04-16T17:01:44.588Z,80274.69
2023-04-16T17:03:26.011Z,80279.22
2023-04-16T17:05:07.397Z,80275.50
2023-04-16T17:06:48.749Z,80278.69
2023-04-16T17:08:30.060Z,80285.72
2023-04-16T17:10:11.433Z,80286.94
2023-04-16T17:11:52.721Z,80282.69
2023-04-16T17:13:34.107Z,80288.75
2023-04-16T17:15:15.463Z,80285.28
2023-04-16T17:16:56.880Z,80291.03
2023-04-16T17:18:38.239Z,80288.88
2023-04-16T17:20:19.544Z,80283.44
2023-04-16T17:22:00.860Z,80292.00
2023-04-16T17:23:42.359Z,80290.81
2023-04-16T17:25:23.677Z,80295.88
2023-04-16T17:27:05.054Z,80300.56
2023-04-16T17:28:46.356Z,80295.59
2023-04-16T17:30:27.664Z,80292.94
2023-04-16T17:32:08.994Z,80297.47
2023-04-16T17:33:50.295Z,80302.66
2023-04-16T17:35:31.617Z,80298.94
2023-04-16T17:37:12.929Z,80290.47
2023-04-16T17:38:54.217Z,80295.69
2023-04-16T17:40:35.516Z,80301.66
2023-04-16T17:42:16.816Z,80287.47
2023-04-16T17:43:58.172Z,80298.66
2023-04-16T17:45:39.592Z,80296.59
2023-04-16T17:47:21.035Z,80303.50
2023-04-16T17:49:02.339Z,80308.09
2023-04-16T17:50:43.661Z,80306.28
2023-04-16T17:52:24.935Z,80301.13
2023-04-16T17:54:06.209Z,80303.31
2023-04-16T17:55:47.524Z,80300.41
2023-04-16T17:57:28.836Z,80303.66
2023-04-16T17:59:10.194Z,80299.41
2023-04-16T18:00:51.492Z,80305.47
2023-04-16T18:02:32.911Z,80307.72
2023-04-16T18:04:14.677Z,80315.94
2023-04-16T18:05:56.396Z,80306.69
2023-04-16T18:07:37.737Z,80310.56
2023-04-16T18:09:19.072Z,80313.94
2023-04-16T18:11:00.357Z,80316.31
2023-04-16T18:12:41.636Z,80312.09
2023-04-16T18:14:22.961Z,80322.66
2023-04-16T18:16:04.279Z,80318.91
2023-04-16T18:17:45.689Z,80318.31
2023-04-16T18:19:27.066Z,80325.03
2023-04-16T18:21:08.364Z,80320.00
2023-04-16T18:22:49.654Z,80320.38
2023-04-16T18:24:30.948Z,80326.78
2023-04-16T18:26:12.749Z,80329.81
2023-04-16T18:27:54.196Z,80326.03
2023-04-16T18:29:35.518Z,80325.16
2023-04-16T18:31:20.646Z,80323.59
2023-04-16T18:34:46.719Z,80334.44
2023-04-16T18:36:27.999Z,80323.63
2023-04-16T18:38:09.280Z,80332.97
2023-04-16T18:39:50.616Z,80321.97
2023-04-16T18:41:31.909Z,80330.88
2023-04-16T18:43:13.237Z,80336.44
2023-04-16T18:44:54.601Z,80328.16
2023-04-16T18:46:36.235Z,80329.97
2023-04-16T18:48:17.830Z,80324.59
2023-04-16T18:49:59.125Z,80331.16
2023-04-16T18:51:40.415Z,80334.66
2023-04-16T18:53:21.945Z,80334.53
2023-04-16T18:55:03.549Z,80338.09
2023-04-16T18:56:45.023Z,80335.53
2023-04-16T18:58:26.352Z,80338.44
2023-04-16T19:00:07.814Z,80336.44
2023-04-16T19:01:49.327Z,80338.03
2023-04-16T19:03:30.783Z,80339.19
2023-04-16T19:05:12.187Z,80345.69
2023-04-16T19:06:53.484Z,80344.06
2023-04-16T19:08:34.752Z,80347.75
2023-04-16T19:10:16.148Z,80360.38
2023-04-16T19:11:57.925Z,80348.19
2023-04-16T19:13:39.290Z,80363.41
2023-04-16T19:15:20.596Z,80359.72
2023-04-16T19:17:01.971Z,80368.16
2023-04-16T19:18:43.342Z,80366.09
2023-04-16T19:20:24.626Z,80369.66
2023-04-16T19:22:05.934Z,80358.78
2023-04-16T19:23:47.367Z,80365.88
2023-04-16T19:25:28.661Z,80368.66
2023-04-16T19:27:09.928Z,80368.84
2023-04-16T19:28:51.292Z,80359.81
2023-04-16T19:30:32.590Z,80365.50
2023-04-16T19:32:14.221Z,80369.91
2023-04-16T19:33:55.718Z,80365.75
2023-04-16T19:35:40.272Z,80369.91
2023-04-16T19:37:21.806Z,80360.81
2023-04-16T19:39:03.092Z,80367.84
2023-04-16T19:40:44.493Z,80370.75
2023-04-16T19:42:25.761Z,80375.63
2023-04-16T19:44:07.084Z,80374.19
2023-04-16T19:45:48.434Z,80384.28
2023-04-16T19:47:29.802Z,80388.19
2023-04-16T19:49:11.382Z,80375.75
2023-04-16T19:50:52.838Z,80380.59
2023-04-16T19:52:34.147Z,80384.88